createdAt,value
2016-09-23T00:00:56.385Z,1011.02
2016-09-23T00:01:56.363Z,1011.01
2016-09-23T00:02:56.341Z,1011.02
2016-09-23T00:03:56.318Z,1011.05
2016-09-23T00:04:56.297Z,1011.04
2016-09-23T00:05:56.275Z,1011.08
2016-09-23T00:06:56.250Z,1011.1
2016-09-23T00:07:56.227Z,1011.08
2016-09-23T00:08:56.206Z,1011.1
2016-09-23T00:09:56.184Z,1011.1
2016-09-23T00:10:56.162Z,1011.1
2016-09-23T00:11:56.146Z,1011.11
2016-09-23T00:12:56.118Z,1011.13
2016-09-23T00:13:56.094Z,1011.12
2016-09-23T00:14:56.071Z,1011.09
2016-09-23T00:15:56.051Z,1011.08
2016-09-23T00:16:56.026Z,1011.11
2016-09-23T00:17:56.005Z,1011.14
2016-09-23T00:18:55.987Z,1011.18
2016-09-23T00:19:55.960Z,1011.13
2016-09-23T00:20:55.936Z,1011.17
2016-09-23T00:21:55.914Z,1011.17
2016-09-23T00:22:55.891Z,1011.15
2016-09-23T00:23:55.868Z,1011.15
2016-09-23T00:24:55.846Z,1011.18
2016-09-23T00:25:55.821Z,1011.13
2016-09-23T00:26:55.801Z,1011.15
2016-09-23T00:27:55.777Z,1011.17
2016-09-23T00:28:55.755Z,1011.15
2016-09-23T00:29:55.733Z,1011.18
2016-09-23T00:30:55.710Z,1011.16
2016-09-23T00:31:55.686Z,1011.15
2016-09-23T00:32:55.662Z,1011.15
2016-09-23T00:33:55.640Z,1011.2
2016-09-23T00:34:55.617Z,1011.25
2016-09-23T00:35:55.594Z,1011.21
2016-09-23T00:36:55.573Z,1011.19
2016-09-23T00:37:55.549Z,1011.2
2016-09-23T00:38:55.526Z,1011.22
2016-09-23T00:39:55.502Z,1011.21
2016-09-23T00:40:55.480Z,1011.2
2016-09-23T00:41:55.458Z,1011.21
2016-09-23T00:42:55.435Z,1011.18
2016-09-23T00:43:55.411Z,1011.18
2016-09-23T00:44:55.389Z,1011.2
2016-09-23T00:45:55.367Z,1011.2
2016-09-23T00:46:55.343Z,1011.2
2016-09-23T00:47:55.320Z,1011.21
2016-09-23T00:48:55.297Z,1011.2
2016-09-23T00:49:55.274Z,1011.21
2016-09-23T00:50:55.249Z,1011.21
2016-09-23T00:51:55.227Z,1011.24
2016-09-23T00:52:55.205Z,1011.19
2016-09-23T00:53:55.180Z,1011.19
2016-09-23T00:54:55.159Z,1011.2
2016-09-23T00:55:55.135Z,1011.21
2016-09-23T00:56:55.112Z,1011.21
2016-09-23T00:57:55.087Z,1011.19
2016-09-23T00:58:55.066Z,1011.23
2016-09-23T00:59:55.043Z,1011.21
2016-09-23T01:00:55.021Z,1011.2
2016-09-23T01:01:54.996Z,1011.17
2016-09-23T01:02:54.975Z,1011.22
2016-09-23T01:03:54.950Z,1011.21
2016-09-23T01:04:54.927Z,1011.2
2016-09-23T01:05:54.904Z,1011.22
2016-09-23T01:06:54.880Z,1011.18
2016-09-23T01:07:54.884Z,1011.19
2016-09-23T01:08:54.833Z,1011.2
2016-09-23T01:09:54.812Z,1011.2
2016-09-23T01:10:54.788Z,1011.23
2016-09-23T01:11:54.766Z,1011.2
2016-09-23T01:12:54.742Z,1011.24
2016-09-23T01:13:54.718Z,1011.25
2016-09-23T01:14:54.695Z,1011.27
2016-09-23T01:15:54.672Z,1011.26
2016-09-23T01:16:54.648Z,1011.24
2016-09-23T01:17:54.625Z,1011.28
2016-09-23T01:18:54.603Z,1011.27
2016-09-23T01:19:54.578Z,1011.29
2016-09-23T01:20:54.557Z,1011.23
2016-09-23T01:21:54.533Z,1011.26
2016-09-23T01:22:54.509Z,1011.27
2016-09-23T01:23:54.486Z,1011.27
2016-09-23T01:24:54.463Z,1011.23
2016-09-23T01:25:54.441Z,1011.24
2016-09-23T01:26:54.416Z,1011.21
2016-09-23T01:27:54.392Z,1011.26
2016-09-23T01:28:54.369Z,1011.24
2016-09-23T01:29:54.347Z,1011.27
2016-09-23T01:30:54.322Z,1011.31
2016-09-23T01:31:54.299Z,1011.3
2016-09-23T01:32:54.278Z,1011.29
2016-09-23T01:33:54.254Z,1011.29
2016-09-23T01:34:54.230Z,1011.28
2016-09-23T01:35:54.206Z,1011.3
2016-09-23T01:36:54.184Z,1011.32
2016-09-23T01:37:54.159Z,1011.31
2016-09-23T01:38:54.137Z,1011.29
2016-09-23T01:39:54.113Z,1011.28
2016-09-23T01:40:54.089Z,1011.3
2016-09-23T01:41:54.065Z,1011.34
2016-09-23T01:42:54.042Z,1011.32
2016-09-23T01:43:54.019Z,1011.32
2016-09-23T01:44:53.997Z,1011.32
2016-09-23T01:45:53.974Z,1011.31
2016-09-23T01:46:53.956Z,1011.32
2016-09-23T01:47:53.926Z,1011.33
2016-09-23T01:48:53.904Z,1011.35
2016-09-23T01:49:53.880Z,1011.34
2016-09-23T01:50:53.857Z,1011.34
2016-09-23T01:51:53.833Z,1011.32
2016-09-23T01:52:53.810Z,1011.35
2016-09-23T01:53:53.787Z,1011.37
2016-09-23T01:54:53.763Z,1011.38
2016-09-23T01:55:53.739Z,1011.35
2016-09-23T01:56:53.715Z,1011.34
2016-09-23T01:57:53.696Z,1011.34
2016-09-23T01:58:53.667Z,1011.35
2016-09-23T01:59:53.645Z,1011.39
2016-09-23T02:00:53.621Z,1011.38
2016-09-23T02:01:53.598Z,1011.42
2016-09-23T02:02:53.584Z,1011.4
2016-09-23T02:03:53.551Z,1011.38
2016-09-23T02:04:53.526Z,1011.42
2016-09-23T02:05:53.504Z,1011.37
2016-09-23T02:06:53.478Z,1011.4
2016-09-23T02:07:53.456Z,1011.38
2016-09-23T02:08:53.432Z,1011.41
2016-09-23T02:09:53.409Z,1011.39
2016-09-23T02:10:53.383Z,1011.42
2016-09-23T02:11:53.361Z,1011.44
2016-09-23T02:12:53.337Z,1011.47
2016-09-23T02:13:53.315Z,1011.47
2016-09-23T02:14:53.289Z,1011.47
2016-09-23T02:15:53.266Z,1011.49
2016-09-23T02:16:53.244Z,1011.45
2016-09-23T02:17:53.218Z,1011.48
2016-09-23T02:18:53.196Z,1011.49
2016-09-23T02:19:53.171Z,1011.5
2016-09-23T02:20:53.149Z,1011.5
2016-09-23T02:21:53.125Z,1011.52
2016-09-23T02:22:53.100Z,1011.5
2016-09-23T02:23:53.078Z,1011.49
2016-09-23T02:24:53.053Z,1011.5
2016-09-23T02:25:53.030Z,1011.53
2016-09-23T02:26:53.007Z,1011.52
2016-09-23T02:27:52.983Z,1011.51
2016-09-23T02:28:52.959Z,1011.53
2016-09-23T02:29:52.936Z,1011.51
2016-09-23T02:30:52.913Z,1011.55
2016-09-23T02:31:52.889Z,1011.53
2016-09-23T02:32:52.865Z,1011.55
2016-09-23T02:33:52.842Z,1011.56
2016-09-23T02:34:52.818Z,1011.57
2016-09-23T02:35:52.793Z,1011.53
2016-09-23T02:36:52.770Z,1011.55
2016-09-23T02:37:52.755Z,1011.53
2016-09-23T02:38:52.725Z,1011.54
2016-09-23T02:39:52.699Z,1011.53
2016-09-23T02:40:52.676Z,1011.52
2016-09-23T02:41:52.653Z,1011.54
2016-09-23T02:42:52.630Z,1011.51
2016-09-23T02:43:52.607Z,1011.59
2016-09-23T02:44:52.582Z,1011.57
2016-09-23T02:45:52.565Z,1011.6
2016-09-23T02:46:52.536Z,1011.57
2016-09-23T02:47:52.512Z,1011.6
2016-09-23T02:48:52.487Z,1011.59
2016-09-23T02:49:52.465Z,1011.59
2016-09-23T02:50:52.441Z,1011.59
2016-09-23T02:51:52.417Z,1011.56
2016-09-23T02:52:52.397Z,1011.61
2016-09-23T02:53:52.371Z,1011.59
2016-09-23T02:54:52.348Z,1011.6
2016-09-23T02:55:52.324Z,1011.58
2016-09-23T02:56:52.300Z,1011.65
2016-09-23T02:57:52.278Z,1011.65
2016-09-23T02:58:52.252Z,1011.63
2016-09-23T02:59:52.229Z,1011.63
2016-09-23T03:00:52.207Z,1011.66
2016-09-23T03:01:52.183Z,1011.67
2016-09-23T03:02:52.158Z,1011.66
2016-09-23T03:03:52.138Z,1011.67
2016-09-23T03:04:52.112Z,1011.61
2016-09-23T03:05:52.087Z,1011.64
2016-09-23T03:06:52.064Z,1011.61
2016-09-23T03:07:52.043Z,1011.61
2016-09-23T03:08:52.023Z,1011.63
2016-09-23T03:09:51.995Z,1011.63
2016-09-23T03:10:51.970Z,1011.63
2016-09-23T03:11:51.949Z,1011.67
2016-09-23T03:12:51.923Z,1011.64
2016-09-23T03:13:51.901Z,1011.63
2016-09-23T03:14:51.877Z,1011.69
2016-09-23T03:15:51.855Z,1011.64
2016-09-23T03:16:51.830Z,1011.63
2016-09-23T03:17:51.806Z,1011.6
2016-09-23T03:18:51.785Z,1011.61
2016-09-23T03:19:51.760Z,1011.57
2016-09-23T03:20:51.738Z,1011.59
2016-09-23T03:21:51.716Z,1011.57
2016-09-23T03:22:51.693Z,1011.61
2016-09-23T03:23:51.668Z,1011.61
2016-09-23T03:24:51.644Z,1011.63
2016-09-23T03:25:51.622Z,1011.62
2016-09-23T03:26:51.598Z,1011.59
2016-09-23T03:27:51.575Z,1011.61
2016-09-23T03:28:51.552Z,1011.61
2016-09-23T03:29:51.529Z,1011.63
2016-09-23T03:30:51.504Z,1011.61
2016-09-23T03:31:51.481Z,1011.6
2016-09-23T03:32:51.459Z,1011.61
2016-09-23T03:33:51.435Z,1011.62
2016-09-23T03:34:51.411Z,1011.66
2016-09-23T03:35:51.387Z,1011.65
2016-09-23T03:36:51.365Z,1011.64
2016-09-23T03:37:51.342Z,1011.66
2016-09-23T03:38:51.317Z,1011.69
2016-09-23T03:39:51.294Z,1011.65
2016-09-23T03:40:51.271Z,1011.64
2016-09-23T03:41:51.246Z,1011.66
2016-09-23T03:42:51.223Z,1011.66
2016-09-23T03:43:51.200Z,1011.68
2016-09-23T03:44:51.176Z,1011.69
2016-09-23T03:45:51.152Z,1011.69
2016-09-23T03:46:51.129Z,1011.65
2016-09-23T03:47:51.106Z,1011.68
2016-09-23T03:48:51.083Z,1011.64
2016-09-23T03:49:51.063Z,1011.68
2016-09-23T03:50:51.034Z,1011.69
2016-09-23T03:51:51.011Z,1011.66
2016-09-23T03:52:50.987Z,1011.68
2016-09-23T03:53:50.964Z,1011.67
2016-09-23T03:54:50.942Z,1011.66
2016-09-23T03:55:50.917Z,1011.67
2016-09-23T03:56:50.894Z,1011.65
2016-09-23T03:57:50.871Z,1011.65
2016-09-23T03:58:50.846Z,1011.66
2016-09-23T03:59:50.823Z,1011.64
2016-09-23T04:00:50.799Z,1011.62
2016-09-23T04:01:50.776Z,1011.6
2016-09-23T04:02:50.752Z,1011.63
2016-09-23T04:03:50.727Z,1011.61
2016-09-23T04:04:50.704Z,1011.62
2016-09-23T04:05:50.681Z,1011.67
2016-09-23T04:06:50.657Z,1011.71
2016-09-23T04:07:50.633Z,1011.65
2016-09-23T04:08:50.611Z,1011.65
2016-09-23T04:09:50.586Z,1011.7
2016-09-23T04:10:50.563Z,1011.69
2016-09-23T04:11:50.538Z,1011.69
2016-09-23T04:12:50.519Z,1011.66
2016-09-23T04:13:50.492Z,1011.7
2016-09-23T04:14:50.469Z,1011.69
2016-09-23T04:15:50.443Z,1011.67
2016-09-23T04:16:50.421Z,1011.69
2016-09-23T04:17:50.398Z,1011.74
2016-09-23T04:18:50.374Z,1011.74
2016-09-23T04:19:50.350Z,1011.78
2016-09-23T04:20:50.327Z,1011.75
2016-09-23T04:21:50.303Z,1011.77
2016-09-23T04:22:50.279Z,1011.77
2016-09-23T04:23:50.255Z,1011.75
2016-09-23T04:24:50.233Z,1011.76
2016-09-23T04:25:50.208Z,1011.75
2016-09-23T04:26:50.185Z,1011.74
2016-09-23T04:27:50.162Z,1011.7
2016-09-23T04:28:50.137Z,1011.71
2016-09-23T04:29:50.115Z,1011.72
2016-09-23T04:30:50.090Z,1011.74
2016-09-23T04:31:50.068Z,1011.74
2016-09-23T04:32:50.045Z,1011.74
2016-09-23T04:33:50.020Z,1011.75
2016-09-23T04:34:49.997Z,1011.78
2016-09-23T04:35:49.973Z,1011.74
2016-09-23T04:36:49.949Z,1011.81
2016-09-23T04:37:49.925Z,1011.73
2016-09-23T04:38:49.902Z,1011.77
2016-09-23T04:39:49.895Z,1011.77
2016-09-23T04:40:49.854Z,1011.76
2016-09-23T04:41:49.832Z,1011.77
2016-09-23T04:42:49.806Z,1011.76
2016-09-23T04:43:49.783Z,1011.76
2016-09-23T04:44:49.759Z,1011.78
2016-09-23T04:45:49.736Z,1011.8
2016-09-23T04:46:49.714Z,1011.81
2016-09-23T04:47:49.688Z,1011.78
2016-09-23T04:48:49.665Z,1011.81
2016-09-23T04:49:49.642Z,1011.82
2016-09-23T04:50:49.618Z,1011.8
2016-09-23T04:51:49.601Z,1011.82
2016-09-23T04:52:49.570Z,1011.83
2016-09-23T04:53:49.548Z,1011.88
2016-09-23T04:54:49.523Z,1011.89
2016-09-23T04:55:49.499Z,1011.87
2016-09-23T04:56:49.476Z,1011.87
2016-09-23T04:57:49.453Z,1011.88
2016-09-23T04:58:49.428Z,1011.85
2016-09-23T04:59:49.406Z,1011.88
2016-09-23T05:00:49.381Z,1011.87
2016-09-23T05:01:49.374Z,1011.88
2016-09-23T05:02:49.333Z,1011.9
2016-09-23T05:03:49.310Z,1011.92
2016-09-23T05:04:49.285Z,1011.91
2016-09-23T05:05:49.262Z,1011.92
2016-09-23T05:06:49.238Z,1011.93
2016-09-23T05:07:49.215Z,1011.9
2016-09-23T05:08:49.190Z,1011.93
2016-09-23T05:09:49.166Z,1011.96
2016-09-23T05:10:49.142Z,1011.93
2016-09-23T05:11:49.119Z,1011.98
2016-09-23T05:12:49.095Z,1011.99
2016-09-23T05:13:49.071Z,1011.96
2016-09-23T05:14:49.046Z,1011.97
2016-09-23T05:15:49.023Z,1011.99
2016-09-23T05:16:48.998Z,1011.96
2016-09-23T05:17:48.974Z,1011.99
2016-09-23T05:18:48.951Z,1011.96
2016-09-23T05:19:48.928Z,1012.01
2016-09-23T05:20:48.903Z,1012
2016-09-23T05:21:48.880Z,1012.02
2016-09-23T05:22:48.856Z,1012.06
2016-09-23T05:23:48.832Z,1012.09
2016-09-23T05:24:48.807Z,1012.07
2016-09-23T05:25:48.797Z,1012.1
2016-09-23T05:26:48.759Z,1012.08
2016-09-23T05:27:48.736Z,1012.08
2016-09-23T05:28:48.711Z,1012.1
2016-09-23T05:29:48.688Z,1012.13
2016-09-23T05:30:48.665Z,1012.12
2016-09-23T05:31:48.641Z,1012.11
2016-09-23T05:32:48.617Z,1012.17
2016-09-23T05:33:48.592Z,1012.17
2016-09-23T05:34:48.568Z,1012.17
2016-09-23T05:35:48.544Z,1012.2
2016-09-23T05:36:48.526Z,1012.22
2016-09-23T05:37:48.498Z,1012.28
2016-09-23T05:38:48.472Z,1012.28
2016-09-23T05:39:48.449Z,1012.3
2016-09-23T05:40:48.426Z,1012.3
2016-09-23T05:41:48.401Z,1012.29
2016-09-23T05:42:48.378Z,1012.33
2016-09-23T05:43:48.353Z,1012.35
2016-09-23T05:44:48.344Z,1012.33
2016-09-23T05:45:48.307Z,1012.36
2016-09-23T05:46:48.281Z,1012.33
2016-09-23T05:47:48.258Z,1012.35
2016-09-23T05:48:48.235Z,1012.37
2016-09-23T05:49:48.219Z,1012.31
2016-09-23T05:50:48.187Z,1012.35
2016-09-23T05:51:48.164Z,1012.34
2016-09-23T05:52:48.140Z,1012.35
2016-09-23T05:53:48.115Z,1012.36
2016-09-23T05:54:48.092Z,1012.38
2016-09-23T05:55:48.070Z,1012.37
2016-09-23T05:56:48.045Z,1012.36
2016-09-23T05:57:48.021Z,1012.39
2016-09-23T05:58:47.997Z,1012.41
2016-09-23T05:59:47.975Z,1012.4
2016-09-23T06:00:47.951Z,1012.38
2016-09-23T06:01:47.927Z,1012.47
2016-09-23T06:02:47.909Z,1012.44
2016-09-23T06:03:47.880Z,1012.43
2016-09-23T06:04:47.857Z,1012.49
2016-09-23T06:05:47.835Z,1012.47
2016-09-23T06:06:47.810Z,1012.49
2016-09-23T06:07:47.786Z,1012.48
2016-09-23T06:08:47.762Z,1012.5
2016-09-23T06:09:47.746Z,1012.53
2016-09-23T06:10:47.732Z,1012.59
2016-09-23T06:11:47.692Z,1012.58
2016-09-23T06:12:47.670Z,1012.59
2016-09-23T06:13:47.648Z,1012.62
2016-09-23T06:14:47.631Z,1012.63
2016-09-23T06:15:47.599Z,1012.63
2016-09-23T06:16:47.578Z,1012.62
2016-09-23T06:17:47.560Z,1012.65
2016-09-23T06:18:47.532Z,1012.65
2016-09-23T06:19:47.508Z,1012.67
2016-09-23T06:20:47.485Z,1012.66
2016-09-23T06:21:47.463Z,1012.7
2016-09-23T06:22:47.440Z,1012.7
2016-09-23T06:23:47.416Z,1012.68
2016-09-23T06:24:47.393Z,1012.65
2016-09-23T06:25:47.372Z,1012.66
2016-09-23T06:26:47.348Z,1012.69
2016-09-23T06:27:47.326Z,1012.73
2016-09-23T06:28:47.304Z,1012.73
2016-09-23T06:29:47.281Z,1012.7
2016-09-23T06:30:47.258Z,1012.71
2016-09-23T06:31:47.236Z,1012.75
2016-09-23T06:32:47.215Z,1012.75
2016-09-23T06:33:47.193Z,1012.75
2016-09-23T06:34:47.170Z,1012.74
2016-09-23T06:35:47.147Z,1012.71
2016-09-23T06:36:47.124Z,1012.76
2016-09-23T06:37:47.103Z,1012.73
2016-09-23T06:38:47.080Z,1012.73
2016-09-23T06:39:47.058Z,1012.74
2016-09-23T06:40:47.036Z,1012.75
2016-09-23T06:41:47.012Z,1012.76
2016-09-23T06:42:46.991Z,1012.76
2016-09-23T06:43:46.974Z,1012.78
2016-09-23T06:44:46.946Z,1012.79
2016-09-23T06:45:46.925Z,1012.78
2016-09-23T06:46:46.904Z,1012.77
2016-09-23T06:47:46.892Z,1012.81
2016-09-23T06:48:46.860Z,1012.84
2016-09-23T06:49:46.850Z,1012.8
2016-09-23T06:50:46.820Z,1012.8
2016-09-23T06:51:46.794Z,1012.82
2016-09-23T06:52:46.773Z,1012.85
2016-09-23T06:53:46.752Z,1012.81
2016-09-23T06:54:46.732Z,1012.85
2016-09-23T06:55:46.708Z,1012.84
2016-09-23T06:56:46.688Z,1012.86
2016-09-23T06:57:46.674Z,1012.89
2016-09-23T06:58:46.648Z,1012.93
2016-09-23T06:59:46.625Z,1012.99
2016-09-23T07:00:46.604Z,1012.95
2016-09-23T07:01:46.585Z,1013.01
2016-09-23T07:02:46.562Z,1013
2016-09-23T07:03:46.542Z,1013
2016-09-23T07:04:46.522Z,1012.99
2016-09-23T07:05:46.501Z,1013.01
2016-09-23T07:06:46.481Z,1013.03
2016-09-23T07:07:46.467Z,1013.01
2016-09-23T07:08:46.438Z,1013.01
2016-09-23T07:09:46.420Z,1013.07
2016-09-23T07:10:46.398Z,1013.06
2016-09-23T07:11:46.377Z,1013.05
2016-09-23T07:12:46.358Z,1013.06
2016-09-23T07:13:46.336Z,1013.09
2016-09-23T07:14:46.316Z,1013.06
2016-09-23T07:15:46.293Z,1013.11
2016-09-23T07:16:46.274Z,1013.1
2016-09-23T07:17:46.253Z,1013.09
2016-09-23T07:18:46.231Z,1013.11
2016-09-23T07:19:46.216Z,1013.08
2016-09-23T07:20:46.231Z,1013.09
2016-09-23T07:21:46.270Z,1013.11
2016-09-23T07:22:46.150Z,1013.12
2016-09-23T07:23:46.175Z,1013.05
2016-09-23T07:24:46.123Z,1013.09
2016-09-23T07:25:46.088Z,1013.09
2016-09-23T07:26:46.067Z,1013.1
2016-09-23T07:27:46.046Z,1013.08
2016-09-23T07:28:46.074Z,1013.13
2016-09-23T07:29:46.057Z,1013.12
2016-09-23T07:30:45.984Z,1013.15
2016-09-23T07:31:45.963Z,1013.12
2016-09-23T07:32:45.941Z,1013.16
2016-09-23T07:33:45.930Z,1013.15
2016-09-23T07:34:45.940Z,1013.18
2016-09-23T07:35:45.922Z,1013.16
2016-09-23T07:36:45.864Z,1013.15
2016-09-23T07:37:45.840Z,1013.2
2016-09-23T07:38:45.821Z,1013.18
2016-09-23T07:39:45.798Z,1013.17
2016-09-23T07:40:45.778Z,1013.18
2016-09-23T07:41:45.808Z,1013.19
2016-09-23T07:42:45.739Z,1013.24
2016-09-23T07:43:45.719Z,1013.23
2016-09-23T07:44:45.698Z,1013.25
2016-09-23T07:45:45.730Z,1013.27
2016-09-23T07:46:45.658Z,1013.3
2016-09-23T07:47:45.639Z,1013.32
2016-09-23T07:48:45.619Z,1013.31
2016-09-23T07:49:45.599Z,1013.36
2016-09-23T07:50:45.584Z,1013.28
2016-09-23T07:51:45.560Z,1013.3
2016-09-23T07:52:45.540Z,1013.29
2016-09-23T07:53:45.521Z,1013.28
2016-09-23T07:54:45.499Z,1013.34
2016-09-23T07:55:45.482Z,1013.4
2016-09-23T07:56:45.463Z,1013.4
2016-09-23T07:57:45.442Z,1013.44
2016-09-23T07:58:45.423Z,1013.42
2016-09-23T07:59:45.416Z,1013.43
2016-09-23T08:00:45.387Z,1013.41
2016-09-23T08:01:45.365Z,1013.42
2016-09-23T08:02:45.377Z,1013.46
2016-09-23T08:03:45.344Z,1013.45
2016-09-23T08:04:45.320Z,1013.4
2016-09-23T08:05:45.290Z,1013.42
2016-09-23T08:06:45.274Z,1013.42
2016-09-23T08:07:45.307Z,1013.43
2016-09-23T08:08:45.233Z,1013.4
2016-09-23T08:09:45.215Z,1013.45
2016-09-23T08:10:45.195Z,1013.46
2016-09-23T08:11:45.177Z,1013.44
2016-09-23T08:12:45.158Z,1013.47
2016-09-23T08:13:45.139Z,1013.5
2016-09-23T08:14:45.121Z,1013.5
2016-09-23T08:15:45.106Z,1013.48
2016-09-23T08:16:45.198Z,1013.5
2016-09-23T08:17:45.064Z,1013.52
2016-09-23T08:18:45.047Z,1013.56
2016-09-23T08:19:45.026Z,1013.6
2016-09-23T08:20:45.046Z,1013.53
2016-09-23T08:21:44.991Z,1013.61
2016-09-23T08:22:44.998Z,1013.63
2016-09-23T08:23:44.955Z,1013.64
2016-09-23T08:24:44.937Z,1013.68
2016-09-23T08:25:44.922Z,1013.74
2016-09-23T08:26:44.901Z,1013.7
2016-09-23T08:27:44.884Z,1013.7
2016-09-23T08:28:44.867Z,1013.68
2016-09-23T08:29:44.849Z,1013.66
2016-09-23T08:30:44.831Z,1013.59
2016-09-23T08:31:44.814Z,1013.66
2016-09-23T08:32:44.797Z,1013.64
2016-09-23T08:33:44.780Z,1013.63
2016-09-23T08:34:44.763Z,1013.64
2016-09-23T08:35:44.745Z,1013.67
2016-09-23T08:36:44.728Z,1013.64
2016-09-23T08:37:44.710Z,1013.65
2016-09-23T08:38:44.694Z,1013.66
2016-09-23T08:39:44.677Z,1013.66
2016-09-23T08:40:44.661Z,1013.64
2016-09-23T08:41:44.643Z,1013.65
2016-09-23T08:42:44.627Z,1013.67
2016-09-23T08:43:44.612Z,1013.65
2016-09-23T08:44:44.594Z,1013.64
2016-09-23T08:45:44.576Z,1013.7
2016-09-23T08:46:44.561Z,1013.7
2016-09-23T08:47:44.544Z,1013.69
2016-09-23T08:48:44.528Z,1013.68
2016-09-23T08:49:44.510Z,1013.78
2016-09-23T08:50:44.495Z,1013.77
2016-09-23T08:51:44.478Z,1013.79
2016-09-23T08:52:44.461Z,1013.8
2016-09-23T08:53:44.444Z,1013.82
2016-09-23T08:54:44.433Z,1013.76
2016-09-23T08:55:44.464Z,1013.79
2016-09-23T08:56:44.395Z,1013.8
2016-09-23T08:57:44.378Z,1013.8
2016-09-23T08:58:44.362Z,1013.8
2016-09-23T08:59:44.343Z,1013.81
2016-09-23T09:00:44.326Z,1013.83
2016-09-23T09:01:44.310Z,1013.86
2016-09-23T09:02:44.295Z,1013.83
2016-09-23T09:03:44.276Z,1013.85
2016-09-23T09:04:44.259Z,1013.82
2016-09-23T09:05:44.243Z,1013.83
2016-09-23T09:06:44.227Z,1013.83
2016-09-23T09:07:44.209Z,1013.83
2016-09-23T09:08:44.191Z,1013.83
2016-09-23T09:09:44.175Z,1013.81
2016-09-23T09:10:45.208Z,1013.82
2016-09-23T09:11:44.142Z,1013.74
2016-09-23T09:12:44.129Z,1013.81
2016-09-23T09:13:44.107Z,1013.8
2016-09-23T09:14:44.090Z,1013.76
2016-09-23T09:15:44.071Z,1013.81
2016-09-23T09:16:44.056Z,1013.76
2016-09-23T09:17:44.039Z,1013.78
2016-09-23T09:18:44.021Z,1013.76
2016-09-23T09:19:44.005Z,1013.8
2016-09-23T09:20:43.989Z,1013.76
2016-09-23T09:21:43.970Z,1013.79
2016-09-23T09:22:43.953Z,1013.8
2016-09-23T09:23:43.937Z,1013.84
2016-09-23T09:24:43.920Z,1013.8
2016-09-23T09:25:43.902Z,1013.79
2016-09-23T09:26:43.886Z,1013.77
2016-09-23T09:27:43.870Z,1013.8
2016-09-23T09:28:43.854Z,1013.79
2016-09-23T09:29:43.837Z,1013.81
2016-09-23T09:30:43.821Z,1013.78
2016-09-23T09:31:43.804Z,1013.81
2016-09-23T09:32:43.787Z,1013.78
2016-09-23T09:33:43.771Z,1013.75
2016-09-23T09:34:43.756Z,1013.77
2016-09-23T09:35:43.739Z,1013.78
2016-09-23T09:36:43.722Z,1013.77
2016-09-23T09:37:43.769Z,1013.81
2016-09-23T09:38:43.692Z,1013.8
2016-09-23T09:39:43.733Z,1013.83
2016-09-23T09:40:43.660Z,1013.82
2016-09-23T09:41:43.644Z,1013.84
2016-09-23T09:42:43.629Z,1013.77
2016-09-23T09:43:43.665Z,1013.83
2016-09-23T09:44:43.598Z,1013.81
2016-09-23T09:45:43.582Z,1013.79
2016-09-23T09:46:43.568Z,1013.83
2016-09-23T09:47:43.552Z,1013.8
2016-09-23T09:48:43.546Z,1013.8
2016-09-23T09:49:43.521Z,1013.86
2016-09-23T09:50:43.505Z,1013.83
2016-09-23T09:52:43.476Z,1013.84
2016-09-23T09:53:43.460Z,1013.85
2016-09-23T09:54:43.443Z,1013.84
2016-09-23T09:55:43.428Z,1013.83
2016-09-23T09:56:43.413Z,1013.84
2016-09-23T09:57:43.399Z,1013.87
2016-09-23T09:58:43.439Z,1013.84
2016-09-23T09:59:43.427Z,1013.8
2016-09-23T10:00:43.351Z,1013.83
2016-09-23T10:01:43.333Z,1013.81
2016-09-23T10:02:43.334Z,1013.8
2016-09-23T10:03:43.303Z,1013.79
2016-09-23T10:04:43.292Z,1013.74
2016-09-23T10:05:43.271Z,1013.76
2016-09-23T10:06:43.255Z,1013.78
2016-09-23T10:07:43.239Z,1013.74
2016-09-23T10:08:43.222Z,1013.81
2016-09-23T10:09:43.205Z,1013.8
2016-09-23T10:10:43.190Z,1013.8
2016-09-23T10:11:43.173Z,1013.81
2016-09-23T10:12:43.213Z,1013.8
2016-09-23T10:13:43.140Z,1013.81
2016-09-23T10:14:43.124Z,1013.77
2016-09-23T10:15:43.214Z,1013.83
2016-09-23T10:16:43.101Z,1013.81
2016-09-23T10:17:43.081Z,1013.83
2016-09-23T10:18:43.060Z,1013.85
2016-09-23T10:19:43.056Z,1013.85
2016-09-23T10:20:43.076Z,1013.83
2016-09-23T10:21:43.019Z,1013.85
2016-09-23T10:22:42.993Z,1013.81
2016-09-23T10:23:43.024Z,1013.78
2016-09-23T10:24:42.980Z,1013.81
2016-09-23T10:25:42.943Z,1013.8
2016-09-23T10:26:42.928Z,1013.86
2016-09-23T10:27:42.909Z,1013.79
2016-09-23T10:28:42.893Z,1013.83
2016-09-23T10:29:42.877Z,1013.86
2016-09-23T10:30:42.860Z,1013.87
2016-09-23T10:31:42.843Z,1013.88
2016-09-23T10:32:42.827Z,1013.86
2016-09-23T10:33:42.810Z,1013.86
2016-09-23T10:34:42.793Z,1013.91
2016-09-23T10:35:42.776Z,1013.87
2016-09-23T10:36:42.759Z,1013.96
2016-09-23T10:37:42.744Z,1013.91
2016-09-23T10:38:42.727Z,1013.92
2016-09-23T10:39:42.711Z,1013.97
2016-09-23T10:40:42.694Z,1013.94
2016-09-23T10:41:42.677Z,1013.97
2016-09-23T10:42:42.660Z,1013.96
2016-09-23T10:43:42.644Z,1013.95
2016-09-23T10:44:42.629Z,1013.97
2016-09-23T10:45:42.612Z,1013.97
2016-09-23T10:46:42.597Z,1013.91
2016-09-23T10:47:42.580Z,1013.96
2016-09-23T10:48:42.564Z,1013.97
2016-09-23T10:49:42.549Z,1013.99
2016-09-23T10:50:42.533Z,1013.98
2016-09-23T10:51:42.519Z,1013.99
2016-09-23T10:52:42.504Z,1013.9
2016-09-23T10:53:42.534Z,1013.98
2016-09-23T10:54:42.588Z,1013.96
2016-09-23T10:55:42.623Z,1014
2016-09-23T10:56:42.575Z,1013.98
2016-09-23T10:57:42.497Z,1014.09
2016-09-23T10:58:42.536Z,1014.07
2016-09-23T10:59:42.492Z,1014.09
2016-09-23T11:00:42.480Z,1014.04
2016-09-23T11:01:42.460Z,1014.17
2016-09-23T11:02:42.459Z,1014.12
2016-09-23T11:03:42.435Z,1014.16
2016-09-23T11:04:42.324Z,1014.19
2016-09-23T11:05:42.318Z,1014.12
2016-09-23T11:06:42.315Z,1014.13
2016-09-23T11:07:42.379Z,1014.13
2016-09-23T11:08:42.329Z,1014.11
2016-09-23T11:09:42.399Z,1014.08
2016-09-23T11:10:42.290Z,1014.1
2016-09-23T11:11:42.318Z,1014.12
2016-09-23T11:12:42.323Z,1014.13
2016-09-23T11:13:42.302Z,1014.19
2016-09-23T11:14:42.225Z,1014.17
2016-09-23T11:15:42.341Z,1014.19
2016-09-23T11:16:42.167Z,1014.14
2016-09-23T11:17:42.137Z,1014.15
2016-09-23T11:18:42.127Z,1014.2
2016-09-23T11:19:42.355Z,1014.18
2016-09-23T11:20:42.264Z,1014.17
2016-09-23T11:21:42.214Z,1014.3
2016-09-23T11:22:42.101Z,1014.33
2016-09-23T11:23:42.211Z,1014.36
2016-09-23T11:24:42.196Z,1014.36
2016-09-23T11:25:42.186Z,1014.34
2016-09-23T11:26:42.159Z,1014.33
2016-09-23T11:27:42.081Z,1014.33
2016-09-23T11:28:42.064Z,1014.46
2016-09-23T11:29:42.097Z,1014.36
2016-09-23T11:30:42.039Z,1014.28
2016-09-23T11:31:42.072Z,1014.34
2016-09-23T11:32:41.982Z,1014.32
2016-09-23T11:33:41.975Z,1014.35
2016-09-23T11:34:41.974Z,1014.35
2016-09-23T11:35:41.954Z,1014.39
2016-09-23T11:36:41.839Z,1014.39
2016-09-23T11:37:41.973Z,1014.43
2016-09-23T11:38:41.828Z,1014.39
2016-09-23T11:39:41.897Z,1014.44
2016-09-23T11:40:41.868Z,1014.51
2016-09-23T11:41:41.923Z,1014.5
2016-09-23T11:42:41.839Z,1014.45
2016-09-23T11:43:41.842Z,1014.45
2016-09-23T11:44:41.824Z,1014.41
2016-09-23T11:45:41.771Z,1014.39
2016-09-23T11:46:41.823Z,1014.35
2016-09-23T11:47:41.734Z,1014.37
2016-09-23T11:48:41.749Z,1014.35
2016-09-23T11:49:41.775Z,1014.34
2016-09-23T11:50:41.778Z,1014.29
2016-09-23T11:51:41.793Z,1014.32
2016-09-23T11:52:41.693Z,1014.29
2016-09-23T11:53:41.659Z,1014.31
2016-09-23T11:54:41.645Z,1014.3
2016-09-23T11:55:41.644Z,1014.3
2016-09-23T11:56:41.668Z,1014.3
2016-09-23T11:57:41.560Z,1014.26
2016-09-23T11:58:41.563Z,1014.29
2016-09-23T11:59:41.600Z,1014.3
2016-09-23T12:00:41.545Z,1014.3
2016-09-23T12:01:41.585Z,1014.32
2016-09-23T12:02:41.553Z,1014.27
2016-09-23T12:03:41.565Z,1014.31
2016-09-23T12:04:41.495Z,1014.25
2016-09-23T12:05:41.523Z,1014.28
2016-09-23T12:06:41.524Z,1014.23
2016-09-23T12:07:41.449Z,1014.2
2016-09-23T12:08:41.475Z,1014.29
2016-09-23T12:09:41.433Z,1014.3
2016-09-23T12:10:41.370Z,1014.3